sensor_id;sensor_type;location;lat;lon;timestamp;temperature;humidity
52058;DHT22;38063;53.210;6.504;2022-10-15T00:00:04;12.00;99.90
52058;DHT22;38063;53.210;6.504;2022-10-15T00:02:30;12.00;99.90
52058;DHT22;38063;53.210;6.504;2022-10-15T00:04:56;12.00;99.90
52058;DHT22;38063;53.210;6.504;2022-10-15T00:07:24;12.00;99.90
52058;DHT22;38063;53.210;6.504;2022-10-15T00:09:49;12.00;99.90
52058;DHT22;38063;53.210;6.504;2022-10-15T00:12:15;12.00;99.90
52058;DHT22;38063;53.210;6.504;2022-10-15T00:14:41;12.10;99.90
52058;DHT22;38063;53.210;6.504;2022-10-15T00:17:07;12.10;99.90
52058;DHT22;38063;53.210;6.504;2022-10-15T00:19:32;12.10;99.90
52058;DHT22;38063;53.210;6.504;2022-10-15T00:21:58;12.10;99.90
52058;DHT22;38063;53.210;6.504;2022-10-15T00:24:24;12.10;99.90
52058;DHT22;38063;53.210;6.504;2022-10-15T00:26:49;12.10;99.90
52058;DHT22;38063;53.210;6.504;2022-10-15T00:29:15;12.10;99.90
52058;DHT22;38063;53.210;6.504;2022-10-15T00:31:41;12.10;99.90
52058;DHT22;38063;53.210;6.504;2022-10-15T00:34:06;12.10;99.90
52058;DHT22;38063;53.210;6.504;2022-10-15T00:36:34;12.00;99.90
52058;DHT22;38063;53.210;6.504;2022-10-15T00:39:00;12.00;99.90
52058;DHT22;38063;53.210;6.504;2022-10-15T00:41:39;12.00;99.90
52058;DHT22;38063;53.210;6.504;2022-10-15T00:46:47;12.00;99.90
52058;DHT22;38063;53.210;6.504;2022-10-15T00:52:14;12.00;99.90
52058;DHT22;38063;53.210;6.504;2022-10-15T00:54:47;12.00;99.90
52058;DHT22;38063;53.210;6.504;2022-10-15T00:57:14;12.00;99.90
52058;DHT22;38063;53.210;6.504;2022-10-15T00:59:49;12.00;99.90
52058;DHT22;38063;53.210;6.504;2022-10-15T01:02:18;12.00;99.90
52058;DHT22;38063;53.210;6.504;2022-10-15T01:04:44;12.00;99.90
52058;DHT22;38063;53.210;6.504;2022-10-15T01:07:10;12.00;99.90
52058;DHT22;38063;53.210;6.504;2022-10-15T01:09:36;12.00;99.90
52058;DHT22;38063;53.210;6.504;2022-10-15T01:12:02;12.00;99.90
52058;DHT22;38063;53.210;6.504;2022-10-15T01:17:26;12.00;99.90
52058;DHT22;38063;53.210;6.504;2022-10-15T01:20:25;12.00;99.90
52058;DHT22;38063;53.210;6.504;2022-10-15T01:23:55;12.00;99.90
52058;DHT22;38063;53.210;6.504;2022-10-15T01:34:52;11.90;99.90
52058;DHT22;38063;53.210;6.504;2022-10-15T01:37:51;11.90;99.90
52058;DHT22;38063;53.210;6.504;2022-10-15T01:40:33;11.90;99.90
52058;DHT22;38063;53.210;6.504;2022-10-15T01:43:08;11.90;99.90
52058;DHT22;38063;53.210;6.504;2022-10-15T01:45:45;11.90;99.90
52058;DHT22;38063;53.210;6.504;2022-10-15T01:48:13;11.90;99.90
52058;DHT22;38063;53.210;6.504;2022-10-15T01:50:43;11.90;99.90
52058;DHT22;38063;53.210;6.504;2022-10-15T01:53:15;11.90;99.90
52058;DHT22;38063;53.210;6.504;2022-10-15T01:55:42;11.90;99.90
52058;DHT22;38063;53.210;6.504;2022-10-15T01:58:11;11.90;99.90
52058;DHT22;38063;53.210;6.504;2022-10-15T02:00:40;11.90;99.90
52058;DHT22;38063;53.210;6.504;2022-10-15T02:03:06;11.90;99.90
52058;DHT22;38063;53.210;6.504;2022-10-15T02:05:39;11.90;99.90
52058;DHT22;38063;53.210;6.504;2022-10-15T02:08:47;11.90;99.90
52058;DHT22;38063;53.210;6.504;2022-10-15T02:11:18;11.90;99.90
52058;DHT22;38063;53.210;6.504;2022-10-15T02:14:00;11.80;99.90
52058;DHT22;38063;53.210;6.504;2022-10-15T02:16:36;11.80;99.90
52058;DHT22;38063;53.210;6.504;2022-10-15T02:19:17;11.80;99.90
52058;DHT22;38063;53.210;6.504;2022-10-15T02:21:52;11.80;99.90
52058;DHT22;38063;53.210;6.504;2022-10-15T02:24:22;11.80;99.90
52058;DHT22;38063;53.210;6.504;2022-10-15T02:26:52;11.80;99.90
52058;DHT22;38063;53.210;6.504;2022-10-15T02:29:21;11.80;99.90
52058;DHT22;38063;53.210;6.504;2022-10-15T02:31:49;11.80;99.90
52058;DHT22;38063;53.210;6.504;2022-10-15T02:34:18;11.80;99.90
52058;DHT22;38063;53.210;6.504;2022-10-15T02:36:45;11.80;99.90
52058;DHT22;38063;53.210;6.504;2022-10-15T02:39:15;11.80;99.90
52058;DHT22;38063;53.210;6.504;2022-10-15T02:41:42;11.80;99.90
52058;DHT22;38063;53.210;6.504;2022-10-15T02:44:08;11.80;99.90
52058;DHT22;38063;53.210;6.504;2022-10-15T02:46:34;11.90;99.90
52058;DHT22;38063;53.210;6.504;2022-10-15T02:48:59;11.80;99.90
52058;DHT22;38063;53.210;6.504;2022-10-15T02:51:25;11.80;99.90
52058;DHT22;38063;53.210;6.504;2022-10-15T02:53:50;11.80;99.90
52058;DHT22;38063;53.210;6.504;2022-10-15T02:56:16;11.80;99.90
52058;DHT22;38063;53.210;6.504;2022-10-15T02:58:42;11.80;99.90
52058;DHT22;38063;53.210;6.504;2022-10-15T03:01:07;12.00;99.90
52058;DHT22;38063;53.210;6.504;2022-10-15T03:03:33;11.80;99.90
52058;DHT22;38063;53.210;6.504;2022-10-15T03:05:58;11.90;99.90
52058;DHT22;38063;53.210;6.504;2022-10-15T03:08:24;11.80;99.90
52058;DHT22;38063;53.210;6.504;2022-10-15T03:10:50;11.70;99.90
52058;DHT22;38063;53.210;6.504;2022-10-15T03:13:15;11.80;99.90
52058;DHT22;38063;53.210;6.504;2022-10-15T03:15:41;11.70;99.90
52058;DHT22;38063;53.210;6.504;2022-10-15T03:18:07;11.80;99.90
52058;DHT22;38063;53.210;6.504;2022-10-15T03:20:33;11.80;99.90
52058;DHT22;38063;53.210;6.504;2022-10-15T03:22:58;11.80;99.90
52058;DHT22;38063;53.210;6.504;2022-10-15T03:25:24;11.80;99.90
52058;DHT22;38063;53.210;6.504;2022-10-15T03:27:50;11.80;99.90
52058;DHT22;38063;53.210;6.504;2022-10-15T03:30:17;11.80;99.90
52058;DHT22;38063;53.210;6.504;2022-10-15T03:32:43;11.80;99.90
52058;DHT22;38063;53.210;6.504;2022-10-15T03:35:09;11.70;99.90
52058;DHT22;38063;53.210;6.504;2022-10-15T03:37:34;11.90;99.90
52058;DHT22;38063;53.210;6.504;2022-10-15T03:40:00;11.80;99.90
52058;DHT22;38063;53.210;6.504;2022-10-15T03:42:26;11.80;99.90
52058;DHT22;38063;53.210;6.504;2022-10-15T03:44:51;11.80;99.90
52058;DHT22;38063;53.210;6.504;2022-10-15T03:47:17;11.80;99.90
52058;DHT22;38063;53.210;6.504;2022-10-15T03:49:43;11.80;99.90
52058;DHT22;38063;53.210;6.504;2022-10-15T03:52:08;11.80;99.90
52058;DHT22;38063;53.210;6.504;2022-10-15T03:54:34;11.70;99.90
52058;DHT22;38063;53.210;6.504;2022-10-15T03:56:59;11.80;99.90
52058;DHT22;38063;53.210;6.504;2022-10-15T03:59:25;11.70;99.90
52058;DHT22;38063;53.210;6.504;2022-10-15T04:01:51;11.70;99.90
52058;DHT22;38063;53.210;6.504;2022-10-15T04:04:16;11.80;99.90
52058;DHT22;38063;53.210;6.504;2022-10-15T04:06:42;11.80;99.90
52058;DHT22;38063;53.210;6.504;2022-10-15T04:09:12;11.80;99.90
52058;DHT22;38063;53.210;6.504;2022-10-15T04:11:38;11.80;99.90
52058;DHT22;38063;53.210;6.504;2022-10-15T04:14:04;11.80;99.90
52058;DHT22;38063;53.210;6.504;2022-10-15T04:16:30;11.80;99.90
52058;DHT22;38063;53.210;6.504;2022-10-15T04:18:56;11.80;99.90
52058;DHT22;38063;53.210;6.504;2022-10-15T04:21:26;11.80;99.90
52058;DHT22;38063;53.210;6.504;2022-10-15T04:23:51;11.80;99.90
52058;DHT22;38063;53.210;6.504;2022-10-15T04:26:17;11.80;99.90
52058;DHT22;38063;53.210;6.504;2022-10-15T04:28:43;11.80;99.90
52058;DHT22;38063;53.210;6.504;2022-10-15T04:31:08;11.80;99.90
52058;DHT22;38063;53.210;6.504;2022-10-15T04:33:34;11.80;99.90
52058;DHT22;38063;53.210;6.504;2022-10-15T04:36:01;11.80;99.90
52058;DHT22;38063;53.210;6.504;2022-10-15T04:38:27;11.80;99.90
52058;DHT22;38063;53.210;6.504;2022-10-15T04:41:10;11.80;99.90
52058;DHT22;38063;53.210;6.504;2022-10-15T04:43:36;11.80;99.90
52058;DHT22;38063;53.210;6.504;2022-10-15T04:46:05;11.80;99.90
52058;DHT22;38063;53.210;6.504;2022-10-15T04:48:33;11.90;99.90
52058;DHT22;38063;53.210;6.504;2022-10-15T04:51:19;11.80;99.90
52058;DHT22;38063;53.210;6.504;2022-10-15T04:53:45;11.80;99.90
52058;DHT22;38063;53.210;6.504;2022-10-15T04:56:13;11.80;99.90
52058;DHT22;38063;53.210;6.504;2022-10-15T04:58:40;11.80;99.90
52058;DHT22;38063;53.210;6.504;2022-10-15T05:01:09;12.00;99.90
52058;DHT22;38063;53.210;6.504;2022-10-15T05:03:39;11.80;99.90
52058;DHT22;38063;53.210;6.504;2022-10-15T05:06:17;11.80;99.90
52058;DHT22;38063;53.210;6.504;2022-10-15T05:08:43;11.90;99.90
52058;DHT22;38063;53.210;6.504;2022-10-15T05:11:19;11.80;99.90
52058;DHT22;38063;53.210;6.504;2022-10-15T05:13:45;11.80;99.90
52058;DHT22;38063;53.210;6.504;2022-10-15T05:16:15;11.80;99.90
52058;DHT22;38063;53.210;6.504;2022-10-15T05:18:43;11.70;99.90
52058;DHT22;38063;53.210;6.504;2022-10-15T05:21:09;11.70;99.90
52058;DHT22;38063;53.210;6.504;2022-10-15T05:23:36;11.80;99.90
52058;DHT22;38063;53.210;6.504;2022-10-15T05:26:04;11.70;99.90
52058;DHT22;38063;53.210;6.504;2022-10-15T05:28:30;11.70;99.90
52058;DHT22;38063;53.210;6.504;2022-10-15T05:31:02;11.80;99.90
52058;DHT22;38063;53.210;6.504;2022-10-15T05:33:27;11.70;99.90
52058;DHT22;38063;53.210;6.504;2022-10-15T05:35:53;11.70;99.90
52058;DHT22;38063;53.210;6.504;2022-10-15T05:38:18;11.70;99.90
52058;DHT22;38063;53.210;6.504;2022-10-15T05:40:48;11.70;99.90
52058;DHT22;38063;53.210;6.504;2022-10-15T05:43:14;11.70;99.90
52058;DHT22;38063;53.210;6.504;2022-10-15T05:45:40;11.60;99.90
52058;DHT22;38063;53.210;6.504;2022-10-15T05:48:06;11.70;99.90
52058;DHT22;38063;53.210;6.504;2022-10-15T05:50:32;11.60;99.90
52058;DHT22;38063;53.210;6.504;2022-10-15T05:52:57;11.60;99.90
52058;DHT22;38063;53.210;6.504;2022-10-15T05:55:23;11.70;99.90
52058;DHT22;38063;53.210;6.504;2022-10-15T05:57:49;11.60;99.90
52058;DHT22;38063;53.210;6.504;2022-10-15T06:00:15;11.60;99.90
52058;DHT22;38063;53.210;6.504;2022-10-15T06:02:40;11.60;99.90
52058;DHT22;38063;53.210;6.504;2022-10-15T06:05:06;11.60;99.90
52058;DHT22;38063;53.210;6.504;2022-10-15T06:07:32;11.60;99.90
52058;DHT22;38063;53.210;6.504;2022-10-15T06:09:58;11.60;99.90
52058;DHT22;38063;53.210;6.504;2022-10-15T06:12:23;11.60;99.90
52058;DHT22;38063;53.210;6.504;2022-10-15T06:14:49;11.60;99.90
52058;DHT22;38063;53.210;6.504;2022-10-15T06:17:14;11.60;99.90
52058;DHT22;38063;53.210;6.504;2022-10-15T06:19:40;11.60;99.90
52058;DHT22;38063;53.210;6.504;2022-10-15T06:22:06;11.60;99.90
52058;DHT22;38063;53.210;6.504;2022-10-15T06:24:31;11.60;99.90
52058;DHT22;38063;53.210;6.504;2022-10-15T06:26:58;11.60;99.90
52058;DHT22;38063;53.210;6.504;2022-10-15T06:29:24;11.60;99.90
52058;DHT22;38063;53.210;6.504;2022-10-15T06:31:49;11.60;99.90
52058;DHT22;38063;53.210;6.504;2022-10-15T06:34:15;11.60;99.90
52058;DHT22;38063;53.210;6.504;2022-10-15T06:36:41;11.60;99.90
52058;DHT22;38063;53.210;6.504;2022-10-15T06:39:06;11.60;99.90
52058;DHT22;38063;53.210;6.504;2022-10-15T06:41:32;11.60;99.90
52058;DHT22;38063;53.210;6.504;2022-10-15T06:43:58;11.60;99.90
52058;DHT22;38063;53.210;6.504;2022-10-15T06:46:23;11.70;99.90
52058;DHT22;38063;53.210;6.504;2022-10-15T06:48:49;11.70;99.90
52058;DHT22;38063;53.210;6.504;2022-10-15T06:51:16;11.60;99.90
52058;DHT22;38063;53.210;6.504;2022-10-15T06:53:41;11.70;99.90
52058;DHT22;38063;53.210;6.504;2022-10-15T06:56:08;11.60;99.90
52058;DHT22;38063;53.210;6.504;2022-10-15T06:58:34;11.70;99.90
52058;DHT22;38063;53.210;6.504;2022-10-15T07:01:03;11.70;99.90
52058;DHT22;38063;53.210;6.504;2022-10-15T07:03:30;11.70;99.90
52058;DHT22;38063;53.210;6.504;2022-10-15T07:05:55;11.70;99.90
52058;DHT22;38063;53.210;6.504;2022-10-15T07:08:21;11.70;99.90
52058;DHT22;38063;53.210;6.504;2022-10-15T07:10:46;12.00;99.90
52058;DHT22;38063;53.210;6.504;2022-10-15T07:13:12;11.80;99.90
52058;DHT22;38063;53.210;6.504;2022-10-15T07:15:39;11.80;99.90
52058;DHT22;38063;53.210;6.504;2022-10-15T07:18:04;11.90;99.90
52058;DHT22;38063;53.210;6.504;2022-10-15T07:20:30;11.80;99.90
52058;DHT22;38063;53.210;6.504;2022-10-15T07:22:57;11.90;99.90
52058;DHT22;38063;53.210;6.504;2022-10-15T07:25:24;11.90;99.90
52058;DHT22;38063;53.210;6.504;2022-10-15T07:27:49;11.90;99.90
52058;DHT22;38063;53.210;6.504;2022-10-15T07:30:15;11.90;99.90
52058;DHT22;38063;53.210;6.504;2022-10-15T07:32:41;11.90;99.90
52058;DHT22;38063;53.210;6.504;2022-10-15T07:35:07;12.00;99.90
52058;DHT22;38063;53.210;6.504;2022-10-15T07:37:33;12.00;99.90
52058;DHT22;38063;53.210;6.504;2022-10-15T07:39:59;12.00;99.90
52058;DHT22;38063;53.210;6.504;2022-10-15T07:42:24;12.00;99.90
52058;DHT22;38063;53.210;6.504;2022-10-15T07:44:50;12.20;99.90
52058;DHT22;38063;53.210;6.504;2022-10-15T07:47:16;12.10;99.90
52058;DHT22;38063;53.210;6.504;2022-10-15T07:49:41;12.10;99.90
52058;DHT22;38063;53.210;6.504;2022-10-15T07:52:07;12.20;99.90
52058;DHT22;38063;53.210;6.504;2022-10-15T07:54:33;12.20;99.90
52058;DHT22;38063;53.210;6.504;2022-10-15T07:56:59;12.30;99.90
52058;DHT22;38063;53.210;6.504;2022-10-15T07:59:25;12.70;99.90
52058;DHT22;38063;53.210;6.504;2022-10-15T08:01:50;12.30;99.90
52058;DHT22;38063;53.210;6.504;2022-10-15T08:04:16;12.40;99.90
52058;DHT22;38063;53.210;6.504;2022-10-15T08:06:42;12.40;99.90
52058;DHT22;38063;53.210;6.504;2022-10-15T08:09:08;12.40;99.90
52058;DHT22;38063;53.210;6.504;2022-10-15T08:11:33;12.50;99.90
52058;DHT22;38063;53.210;6.504;2022-10-15T08:13:59;12.50;99.90
52058;DHT22;38063;53.210;6.504;2022-10-15T08:16:25;12.50;99.90
52058;DHT22;38063;53.210;6.504;2022-10-15T08:18:50;12.50;99.90
52058;DHT22;38063;53.210;6.504;2022-10-15T08:21:16;12.60;99.90
52058;DHT22;38063;53.210;6.504;2022-10-15T08:23:41;12.60;99.90
52058;DHT22;38063;53.210;6.504;2022-10-15T08:26:07;12.60;99.90
52058;DHT22;38063;53.210;6.504;2022-10-15T08:28:34;12.70;99.90
52058;DHT22;38063;53.210;6.504;2022-10-15T08:31:01;12.70;99.90
52058;DHT22;38063;53.210;6.504;2022-10-15T08:33:28;12.80;99.90
52058;DHT22;38063;53.210;6.504;2022-10-15T08:35:54;12.80;99.90
52058;DHT22;38063;53.210;6.504;2022-10-15T08:38:19;12.90;99.90
52058;DHT22;38063;53.210;6.504;2022-10-15T08:40:56;12.90;99.90
52058;DHT22;38063;53.210;6.504;2022-10-15T08:43:39;13.00;99.90
52058;DHT22;38063;53.210;6.504;2022-10-15T08:46:11;13.00;99.90
52058;DHT22;38063;53.210;6.504;2022-10-15T08:48:43;13.10;99.90
52058;DHT22;38063;53.210;6.504;2022-10-15T08:51:17;13.10;99.90
52058;DHT22;38063;53.210;6.504;2022-10-15T08:53:48;13.00;99.90
52058;DHT22;38063;53.210;6.504;2022-10-15T08:56:32;13.00;99.90
52058;DHT22;38063;53.210;6.504;2022-10-15T08:59:04;13.10;99.90
52058;DHT22;38063;53.210;6.504;2022-10-15T09:01:50;13.10;99.90
52058;DHT22;38063;53.210;6.504;2022-10-15T09:04:24;13.10;99.90
52058;DHT22;38063;53.210;6.504;2022-10-15T09:09:57;13.20;99.90
52058;DHT22;38063;53.210;6.504;2022-10-15T09:15:32;13.30;99.90
52058;DHT22;38063;53.210;6.504;2022-10-15T09:17:59;13.40;99.90
52058;DHT22;38063;53.210;6.504;2022-10-15T09:20:30;13.60;99.90
52058;DHT22;38063;53.210;6.504;2022-10-15T09:22:57;13.70;99.90
52058;DHT22;38063;53.210;6.504;2022-10-15T09:25:23;13.50;99.90
52058;DHT22;38063;53.210;6.504;2022-10-15T09:27:51;13.50;99.90
52058;DHT22;38063;53.210;6.504;2022-10-15T09:30:33;13.50;99.90
52058;DHT22;38063;53.210;6.504;2022-10-15T09:33:17;13.50;99.90
52058;DHT22;38063;53.210;6.504;2022-10-15T09:35:53;13.50;99.90
52058;DHT22;38063;53.210;6.504;2022-10-15T09:38:46;14.10;99.90
52058;DHT22;38063;53.210;6.504;2022-10-15T09:43:50;13.60;99.90
52058;DHT22;38063;53.210;6.504;2022-10-15T09:46:17;13.50;99.90
52058;DHT22;38063;53.210;6.504;2022-10-15T09:49:17;13.50;99.90
52058;DHT22;38063;53.210;6.504;2022-10-15T09:52:06;13.50;99.90
52058;DHT22;38063;53.210;6.504;2022-10-15T09:57:25;13.50;99.90
52058;DHT22;38063;53.210;6.504;2022-10-15T09:59:57;13.50;99.90
52058;DHT22;38063;53.210;6.504;2022-10-15T10:02:25;13.40;99.90
52058;DHT22;38063;53.210;6.504;2022-10-15T10:04:52;13.40;99.90
52058;DHT22;38063;53.210;6.504;2022-10-15T10:07:31;13.40;99.90
52058;DHT22;38063;53.210;6.504;2022-10-15T10:10:03;13.40;99.90
52058;DHT22;38063;53.210;6.504;2022-10-15T10:12:33;13.30;99.90
52058;DHT22;38063;53.210;6.504;2022-10-15T10:15:06;13.30;99.90
52058;DHT22;38063;53.210;6.504;2022-10-15T10:17:34;13.30;99.90
52058;DHT22;38063;53.210;6.504;2022-10-15T10:22:56;13.30;99.90
52058;DHT22;38063;53.210;6.504;2022-10-15T10:25:26;13.30;99.90
52058;DHT22;38063;53.210;6.504;2022-10-15T10:28:13;13.30;99.90
52058;DHT22;38063;53.210;6.504;2022-10-15T10:30:51;13.40;99.90
52058;DHT22;38063;53.210;6.504;2022-10-15T10:33:27;13.40;99.90
52058;DHT22;38063;53.210;6.504;2022-10-15T10:35:53;13.40;99.90
52058;DHT22;38063;53.210;6.504;2022-10-15T10:38:22;13.50;99.90
52058;DHT22;38063;53.210;6.504;2022-10-15T10:40:56;13.50;99.90
52058;DHT22;38063;53.210;6.504;2022-10-15T10:43:25;13.50;99.90
52058;DHT22;38063;53.210;6.504;2022-10-15T10:48:40;13.50;99.90
52058;DHT22;38063;53.210;6.504;2022-10-15T10:51:18;13.50;99.90
52058;DHT22;38063;53.210;6.504;2022-10-15T10:53:50;13.60;99.90
52058;DHT22;38063;53.210;6.504;2022-10-15T10:56:19;13.70;99.90
52058;DHT22;38063;53.210;6.504;2022-10-15T10:58:45;13.90;99.90
52058;DHT22;38063;53.210;6.504;2022-10-15T11:01:12;13.90;99.90
52058;DHT22;38063;53.210;6.504;2022-10-15T11:03:44;14.00;99.90
52058;DHT22;38063;53.210;6.504;2022-10-15T11:08:52;14.00;99.90
52058;DHT22;38063;53.210;6.504;2022-10-15T11:11:28;14.10;99.90
52058;DHT22;38063;53.210;6.504;2022-10-15T11:14:10;14.10;99.90
52058;DHT22;38063;53.210;6.504;2022-10-15T11:17:07;14.10;99.90
52058;DHT22;38063;53.210;6.504;2022-10-15T11:19:44;14.10;99.90
52058;DHT22;38063;53.210;6.504;2022-10-15T11:30:52;14.40;99.90
52058;DHT22;38063;53.210;6.504;2022-10-15T11:36:09;14.50;99.90
52058;DHT22;38063;53.210;6.504;2022-10-15T11:38:49;14.60;99.90
52058;DHT22;38063;53.210;6.504;2022-10-15T11:49:03;14.80;99.90
52058;DHT22;38063;53.210;6.504;2022-10-15T11:54:30;14.80;99.90
52058;DHT22;38063;53.210;6.504;2022-10-15T11:57:00;14.80;99.90
52058;DHT22;38063;53.210;6.504;2022-10-15T11:59:34;14.80;99.90
52058;DHT22;38063;53.210;6.504;2022-10-15T12:02:14;14.80;99.90
52058;DHT22;38063;53.210;6.504;2022-10-15T12:04:49;14.80;99.90
52058;DHT22;38063;53.210;6.504;2022-10-15T12:07:20;14.80;99.90
52058;DHT22;38063;53.210;6.504;2022-10-15T12:09:51;14.90;99.90
52058;DHT22;38063;53.210;6.504;2022-10-15T12:12:42;15.00;99.90
52058;DHT22;38063;53.210;6.504;2022-10-15T12:18:26;15.00;99.90
52058;DHT22;38063;53.210;6.504;2022-10-15T12:20:54;15.10;99.90
52058;DHT22;38063;53.210;6.504;2022-10-15T12:23:41;15.10;99.90
52058;DHT22;38063;53.210;6.504;2022-10-15T12:28:55;15.00;99.90
52058;DHT22;38063;53.210;6.504;2022-10-15T12:31:22;15.00;99.90
52058;DHT22;38063;53.210;6.504;2022-10-15T12:33:56;15.00;99.90
52058;DHT22;38063;53.210;6.504;2022-10-15T12:41:44;15.00;99.90
52058;DHT22;38063;53.210;6.504;2022-10-15T12:44:29;15.00;99.90
52058;DHT22;38063;53.210;6.504;2022-10-15T12:46:56;15.00;99.90
52058;DHT22;38063;53.210;6.504;2022-10-15T12:51:55;15.00;99.90
52058;DHT22;38063;53.210;6.504;2022-10-15T12:54:41;15.00;99.90
52058;DHT22;38063;53.210;6.504;2022-10-15T13:00:36;15.00;99.90
52058;DHT22;38063;53.210;6.504;2022-10-15T13:03:20;14.90;99.90
52058;DHT22;38063;53.210;6.504;2022-10-15T13:05:47;14.90;99.90
52058;DHT22;38063;53.210;6.504;2022-10-15T13:08:23;14.90;99.90
52058;DHT22;38063;53.210;6.504;2022-10-15T13:10:57;14.90;99.90
52058;DHT22;38063;53.210;6.504;2022-10-15T13:13:27;14.80;99.90
52058;DHT22;38063;53.210;6.504;2022-10-15T13:16:06;14.80;99.90
52058;DHT22;38063;53.210;6.504;2022-10-15T13:18:33;14.80;99.90
52058;DHT22;38063;53.210;6.504;2022-10-15T13:20:59;14.80;99.90
52058;DHT22;38063;53.210;6.504;2022-10-15T13:23:28;14.80;99.90
52058;DHT22;38063;53.210;6.504;2022-10-15T13:26:10;14.70;99.90
52058;DHT22;38063;53.210;6.504;2022-10-15T13:28:39;14.80;99.90
52058;DHT22;38063;53.210;6.504;2022-10-15T13:31:21;14.80;99.90
52058;DHT22;38063;53.210;6.504;2022-10-15T13:33:50;14.80;99.90
52058;DHT22;38063;53.210;6.504;2022-10-15T13:36:25;14.80;99.90
52058;DHT22;38063;53.210;6.504;2022-10-15T13:39:22;14.80;99.90
52058;DHT22;38063;53.210;6.504;2022-10-15T13:41:49;14.80;99.90
52058;DHT22;38063;53.210;6.504;2022-10-15T13:44:22;14.80;99.90
52058;DHT22;38063;53.210;6.504;2022-10-15T13:46:48;15.00;99.90
52058;DHT22;38063;53.210;6.504;2022-10-15T13:49:17;14.80;99.90
52058;DHT22;38063;53.210;6.504;2022-10-15T13:51:48;14.80;99.90
52058;DHT22;38063;53.210;6.504;2022-10-15T13:54:19;14.90;99.90
52058;DHT22;38063;53.210;6.504;2022-10-15T13:56:59;14.90;99.90
52058;DHT22;38063;53.210;6.504;2022-10-15T13:59:28;14.70;99.90
52058;DHT22;38063;53.210;6.504;2022-10-15T14:01:58;14.80;99.90
52058;DHT22;38063;53.210;6.504;2022-10-15T14:04:27;14.80;99.90
52058;DHT22;38063;53.210;6.504;2022-10-15T14:06:59;14.70;99.90
52058;DHT22;38063;53.210;6.504;2022-10-15T14:09:33;14.80;99.90
52058;DHT22;38063;53.210;6.504;2022-10-15T14:12:00;14.70;99.90
52058;DHT22;38063;53.210;6.504;2022-10-15T14:16:58;14.70;99.90
52058;DHT22;38063;53.210;6.504;2022-10-15T14:19:25;14.70;99.90
52058;DHT22;38063;53.210;6.504;2022-10-15T14:21:58;14.70;99.90
52058;DHT22;38063;53.210;6.504;2022-10-15T14:24:51;14.70;99.90
52058;DHT22;38063;53.210;6.504;2022-10-15T14:27:23;14.70;99.90
52058;DHT22;38063;53.210;6.504;2022-10-15T14:29:59;14.70;99.90
52058;DHT22;38063;53.210;6.504;2022-10-15T14:32:28;14.70;99.90
52058;DHT22;38063;53.210;6.504;2022-10-15T14:34:59;14.70;99.90
52058;DHT22;38063;53.210;6.504;2022-10-15T14:37:39;14.60;99.90
52058;DHT22;38063;53.210;6.504;2022-10-15T14:47:49;14.80;99.90
52058;DHT22;38063;53.210;6.504;2022-10-15T14:50:16;14.80;99.90
52058;DHT22;38063;53.210;6.504;2022-10-15T14:52:45;14.80;99.90
52058;DHT22;38063;53.210;6.504;2022-10-15T14:57:42;14.80;99.90
52058;DHT22;38063;53.210;6.504;2022-10-15T15:00:20;14.80;99.90
52058;DHT22;38063;53.210;6.504;2022-10-15T15:02:47;14.80;99.90
52058;DHT22;38063;53.210;6.504;2022-10-15T15:07:39;14.70;99.90
52058;DHT22;38063;53.210;6.504;2022-10-15T15:10:06;14.70;99.90
52058;DHT22;38063;53.210;6.504;2022-10-15T15:12:34;14.70;99.90
52058;DHT22;38063;53.210;6.504;2022-10-15T15:15:00;14.70;99.90
52058;DHT22;38063;53.210;6.504;2022-10-15T15:17:28;14.80;99.90
52058;DHT22;38063;53.210;6.504;2022-10-15T15:19:55;14.70;99.90
52058;DHT22;38063;53.210;6.504;2022-10-15T15:22:33;14.80;99.90
52058;DHT22;38063;53.210;6.504;2022-10-15T15:25:04;14.80;99.90
52058;DHT22;38063;53.210;6.504;2022-10-15T15:27:31;14.80;99.90
52058;DHT22;38063;53.210;6.504;2022-10-15T15:30:04;14.80;99.90
52058;DHT22;38063;53.210;6.504;2022-10-15T15:32:30;14.80;99.90
52058;DHT22;38063;53.210;6.504;2022-10-15T15:34:56;14.90;99.90
52058;DHT22;38063;53.210;6.504;2022-10-15T15:37:24;14.80;99.90
52058;DHT22;38063;53.210;6.504;2022-10-15T15:39:49;14.80;99.90
52058;DHT22;38063;53.210;6.504;2022-10-15T15:42:18;14.80;99.90
52058;DHT22;38063;53.210;6.504;2022-10-15T15:44:44;14.90;99.90
52058;DHT22;38063;53.210;6.504;2022-10-15T15:47:10;14.90;99.90
52058;DHT22;38063;53.210;6.504;2022-10-15T15:49:36;14.90;99.90
52058;DHT22;38063;53.210;6.504;2022-10-15T15:52:07;15.00;99.90
52058;DHT22;38063;53.210;6.504;2022-10-15T15:54:41;14.80;99.90
52058;DHT22;38063;53.210;6.504;2022-10-15T15:57:07;14.90;99.90
52058;DHT22;38063;53.210;6.504;2022-10-15T15:59:33;14.80;99.90
52058;DHT22;38063;53.210;6.504;2022-10-15T16:01:59;14.70;99.90
52058;DHT22;38063;53.210;6.504;2022-10-15T16:04:26;14.60;99.90
52058;DHT22;38063;53.210;6.504;2022-10-15T16:06:52;14.60;99.90
52058;DHT22;38063;53.210;6.504;2022-10-15T16:09:18;14.60;99.90
52058;DHT22;38063;53.210;6.504;2022-10-15T16:11:44;14.80;99.90
52058;DHT22;38063;53.210;6.504;2022-10-15T16:14:10;14.40;99.90
52058;DHT22;38063;53.210;6.504;2022-10-15T16:16:36;14.50;99.90
52058;DHT22;38063;53.210;6.504;2022-10-15T16:19:03;14.40;99.90
52058;DHT22;38063;53.210;6.504;2022-10-15T16:21:29;14.30;99.90
52058;DHT22;38063;53.210;6.504;2022-10-15T16:23:54;14.30;99.90
52058;DHT22;38063;53.210;6.504;2022-10-15T16:26:20;14.20;99.90
52058;DHT22;38063;53.210;6.504;2022-10-15T16:28:46;14.30;99.90
52058;DHT22;38063;53.210;6.504;2022-10-15T16:33:39;14.20;99.90
52058;DHT22;38063;53.210;6.504;2022-10-15T16:36:04;14.20;99.90
52058;DHT22;38063;53.210;6.504;2022-10-15T16:38:30;14.20;99.90
52058;DHT22;38063;53.210;6.504;2022-10-15T16:40:56;14.20;99.90
52058;DHT22;38063;53.210;6.504;2022-10-15T16:43:21;14.10;99.90
52058;DHT22;38063;53.210;6.504;2022-10-15T16:45:54;14.10;99.90
52058;DHT22;38063;53.210;6.504;2022-10-15T16:48:20;14.10;99.90
52058;DHT22;38063;53.210;6.504;2022-10-15T16:50:46;14.10;99.90
52058;DHT22;38063;53.210;6.504;2022-10-15T16:53:11;14.10;99.90
52058;DHT22;38063;53.210;6.504;2022-10-15T16:55:37;14.20;99.90
52058;DHT22;38063;53.210;6.504;2022-10-15T16:58:03;14.10;99.90
52058;DHT22;38063;53.210;6.504;2022-10-15T17:00:28;14.10;99.90
52058;DHT22;38063;53.210;6.504;2022-10-15T17:02:54;14.10;99.90
52058;DHT22;38063;53.210;6.504;2022-10-15T17:05:19;14.10;99.90
52058;DHT22;38063;53.210;6.504;2022-10-15T17:07:45;14.10;99.90
52058;DHT22;38063;53.210;6.504;2022-10-15T17:10:11;14.10;99.90
52058;DHT22;38063;53.210;6.504;2022-10-15T17:12:36;14.10;99.90
52058;DHT22;38063;53.210;6.504;2022-10-15T17:15:02;14.10;99.90
52058;DHT22;38063;53.210;6.504;2022-10-15T17:17:28;14.00;99.90